| time (UTC) | temp C | wind direction | speed KPH | gust KPH | rain 1hr cm | rain 24hr cm | rain mn cm | humidity % | barometer mb |
| 20260906095427 | 30 | 29 | 8.0 | 11.3 | 0.00 | 0.00 | 0.00 | 66 | 1021.5 |
| 20260906094419 | 30 | 349 | 3.2 | 3.2 | 0.00 | 0.00 | 0.00 | 68 | 1021.5 |
| 20260906093427 | 29 | 48 | 6.4 | 11.3 | 0.00 | 0.00 | 0.00 | 69 | 1021.4 |
| 20260906092419 | 30 | 33 | 4.8 | 6.4 | 0.00 | 0.00 | 0.00 | 67 | 1021.4 |
| 20260906091447 | 30 | 41 | 6.4 | 9.7 | 0.00 | 0.00 | 0.00 | 69 | 1021.5 |
| 20260906090418 | 29 | 65 | 3.2 | 4.8 | 0.00 | 0.00 | 0.00 | 70 | 1021.5 |
| 20260906085427 | 29 | 16 | 4.8 | 6.4 | 0.00 | 0.00 | 0.00 | 70 | 1021.4 |
| 20260906084419 | 30 | 79 | 8.0 | 9.7 | 0.00 | 0.00 | 0.00 | 70 | 1021.5 |
| 20260906083427 | 28 | 44 | 6.4 | 9.7 | 0.00 | 0.00 | 0.00 | 72 | 1021.7 |
| 20260906082418 | 28 | 19 | 8.0 | 11.3 | 0.00 | 0.00 | 0.00 | 72 | 1021.6 |
| 20260906081427 | 28 | 29 | 8.0 | 12.9 | 0.00 | 0.00 | 0.00 | 73 | 1021.5 |
| 20260906080419 | 27 | 57 | 6.4 | 14.5 | 0.00 | 0.00 | 0.00 | 75 | 1021.6 |
| 20260906075427 | 27 | 32 | 8.0 | 12.9 | 0.00 | 0.00 | 0.00 | 73 | 1021.4 |
| 20260906074419 | 27 | 19 | 4.8 | 6.4 | 0.00 | 0.00 | 0.00 | 73 | 1021.3 |
| 20260906073427 | 26 | 51 | 8.0 | 11.3 | 0.00 | 0.00 | 0.00 | 75 | 1021.1 |
| 20260906072420 | 26 | 31 | 4.8 | 6.4 | 0.00 | 0.00 | 0.00 | 76 | 1021.0 |
| 20260906071428 | 26 | 33 | 4.8 | 9.7 | 0.00 | 0.00 | 0.00 | 73 | 1021.0 |
| 20260906070419 | 26 | 27 | 4.8 | 9.7 | 0.00 | 0.00 | 0.00 | 76 | 1021.1 |
| 20260906065427 | 25 | 28 | 4.8 | 6.4 | 0.00 | 0.00 | 0.00 | 77 | 1020.9 |
| 20260906064422 | 25 | 40 | 6.4 | 6.4 | 0.00 | 0.00 | 0.00 | 76 | 1020.9 |
| 20260906063427 | 25 | 13 | 4.8 | 6.4 | 0.00 | 0.00 | 0.00 | 77 | 1020.7 |
| 20260906062420 | 25 | 7 | 6.4 | 9.7 | 0.00 | 0.00 | 0.00 | 76 | 1020.7 |
| 20260906061427 | 24 | 11 | 3.2 | 3.2 | 0.00 | 0.00 | 0.00 | 78 | 1020.6 |
| 20260906060419 | 23 | 20 | 1.6 | 3.2 | 0.00 | 0.00 | 0.00 | 79 | 1020.4 |
| 20260906055447 | 23 | 37 | 1.6 | 1.6 | 0.00 | 0.00 | 0.00 | 80 | 1020.3 |
| 20260906054419 | 23 | 26 | 4.8 | 6.4 | 0.00 | 0.00 | 0.00 | 81 | 1020.3 |
| 20260906053427 | 23 | 34 | 3.2 | 4.8 | 0.00 | 0.00 | 0.00 | 82 | 1020.2 |
| 20260906052419 | 23 | 12 | 3.2 | 4.8 | 0.00 | 0.00 | 0.00 | 83 | 1020.2 |
| 20260906051448 | 22 | 2 | 3.2 | 4.8 | 0.00 | 0.00 | 0.00 | 84 | 1020.1 |
| 20260906050420 | 22 | 343 | 3.2 | 4.8 | 0.00 | 0.00 | 0.00 | 86 | 1020.0 |
| 20260906045427 | 22 | 7 | 3.2 | 4.8 | 0.00 | 0.00 | 0.00 | 88 | 1019.9 |
| 20260906044420 | 22 | 344 | 3.2 | 3.2 | 0.00 | 0.00 | 0.00 | 89 | 1019.9 |
| 20260906043428 | 22 | 21 | 3.2 | 3.2 | 0.00 | 0.00 | 0.00 | 89 | 1019.6 |
| 20260906042420 | 22 | 4 | 3.2 | 4.8 | 0.00 | 0.00 | 0.00 | 90 | 1019.6 |
| 20260906041427 | 22 | 24 | 3.2 | 6.4 | 0.00 | 0.00 | 0.00 | 91 | 1019.6 |
| 20260906040440 | 22 | 24 | 4.8 | 4.8 | 0.00 | 0.00 | 0.00 | 91 | 1019.4 |
| 20260906035428 | 22 | 358 | 4.8 | 4.8 | 0.00 | 0.00 | 0.00 | 92 | 1019.3 |
| 20260906034420 | 23 | 48 | 3.2 | 3.2 | 0.00 | 0.00 | 0.00 | 93 | 1019.3 |
| 20260906033428 | 23 | 26 | 4.8 | 4.8 | 0.00 | 0.00 | 0.00 | 94 | 1019.2 |
| 20260906032419 | 23 | 30 | 4.8 | 6.4 | 0.00 | 0.00 | 0.00 | 94 | 1019.0 |
| 20260906031427 | 23 | 23 | 4.8 | 6.4 | 0.00 | 0.00 | 0.00 | 95 | 1019.0 |
| 20260906030440 | 23 | 4 | 3.2 | 4.8 | 0.00 | 0.00 | 0.00 | 95 | 1018.8 |
| 20260906025430 | 23 | 19 | 4.8 | 6.4 | 0.00 | 0.00 | 0.00 | 94 | 1019.1 |
| 20260906024420 | 23 | 30 | 6.4 | 9.7 | 0.00 | 0.00 | 0.00 | 94 | 1018.7 |
| 20260906023428 | 24 | 38 | 4.8 | 6.4 | 0.00 | 0.00 | 0.00 | 94 | 1018.9 |
| 20260906022421 | 24 | 23 | 6.4 | 9.7 | 0.00 | 0.00 | 0.00 | 93 | 1018.9 |
| 20260906021428 | 24 | 353 | 9.7 | 12.9 | 0.00 | 0.00 | 0.00 | 93 | 1018.7 |
| 20260906020440 | 24 | 26 | 9.7 | 12.9 | 0.00 | 0.00 | 0.00 | 92 | 1018.7 |
| 20260906015427 | 24 | 359 | 8.0 | 11.3 | 0.00 | 0.00 | 0.00 | 92 | 1018.6 |
| 20260906014419 | 24 | 33 | 8.0 | 11.3 | 0.00 | 0.00 | 0.00 | 92 | 1018.7 |
| 20260906013428 | 24 | 3 | 9.7 | 11.3 | 0.00 | 0.00 | 0.00 | 91 | 1018.6 |
| 20260906012420 | 24 | 14 | 4.8 | 6.4 | 0.00 | 0.00 | 0.00 | 91 | 1018.6 |
| 20260906011428 | 24 | 27 | 4.8 | 6.4 | 0.00 | 0.00 | 0.00 | 90 | 1018.6 |
| 20260906010419 | 24 | 22 | 6.4 | 11.3 | 0.00 | 0.00 | 0.00 | 89 | 1018.5 |
| 20260906005449 | 24 | 24 | 4.8 | 6.4 | 0.00 | 0.00 | 0.00 | 89 | 1018.5 |
| 20260906004420 | 24 | 41 | 3.2 | 4.8 | 0.00 | 0.00 | 0.00 | 88 | 1018.5 |
| 20260906003428 | 24 | 12 | 3.2 | 4.8 | 0.00 | 0.00 | 0.00 | 87 | 1018.3 |
| 20260906002420 | 24 | 355 | 1.6 | 3.2 | 0.00 | 0.00 | 0.00 | 87 | 1018.3 |
| 20260906001428 | 24 | 6 | 3.2 | 3.2 | 0.00 | 0.00 | 0.00 | 85 | 1018.4 |
| 20260906000420 | 24 | 25 | 3.2 | 4.8 | 0.00 | 0.00 | 0.00 | 85 | 1018.5 |
| 20260905235428 | 24 | 27 | 4.8 | 6.4 | 0.00 | 0.00 | 0.00 | 85 | 1018.4 |
| 20260905234440 | 24 | 29 | 3.2 | 4.8 | 0.00 | 0.00 | 0.00 | 85 | 1018.4 |
| 20260905233428 | 24 | 35 | 1.6 | 3.2 | 0.00 | 0.00 | 0.00 | 85 | 1018.2 |
| 20260905232420 | 24 | 27 | 4.8 | 4.8 | 0.00 | 0.00 | 0.00 | 85 | 1018.2 |
| 20260905231447 | 24 | 39 | 3.2 | 3.2 | 0.00 | 0.00 | 0.00 | 85 | 1018.2 |
| 20260905230420 | 24 | 41 | 4.8 | 6.4 | 0.00 | 0.00 | 0.00 | 85 | 1018.2 |
| 20260905225428 | 25 | 42 | 0.0 | 3.2 | 0.00 | 0.00 | 0.00 | 85 | 1018.1 |
| 20260905224420 | 25 | 51 | 1.6 | 3.2 | 0.00 | 0.00 | 0.00 | 85 | 1018.1 |
| 20260905223428 | 25 | 53 | 0.0 | 1.6 | 0.00 | 0.00 | 0.00 | 85 | 1018.0 |
| 20260905222440 | 25 | 52 | 3.2 | 3.2 | 0.00 | 0.00 | 0.00 | 84 | 1017.9 |
| 20260905221428 | 25 | 31 | 3.2 | 4.8 | 0.00 | 0.00 | 0.00 | 83 | 1017.7 |
| 20260905220420 | 25 | 59 | 1.6 | 1.6 | 0.00 | 0.00 | 0.00 | 83 | 1017.8 |
| 20260905215428 | 25 | 44 | 1.6 | 1.6 | 0.00 | 0.00 | 0.00 | 83 | 1017.8 |
| 20260905214420 | 25 | 61 | 1.6 | 3.2 | 0.00 | 0.00 | 0.00 | 83 | 1017.8 |
| 20260905213428 | 25 | 97 | 0.0 | 1.6 | 0.00 | 0.00 | 0.00 | 83 | 1017.7 |
| 20260905212440 | 25 | 67 | 1.6 | 1.6 | 0.00 | 0.00 | 0.00 | 83 | 1017.6 |
| 20260905211428 | 25 | 74 | 1.6 | 3.2 | 0.00 | 0.00 | 0.00 | 83 | 1017.5 |
| 20260905210440 | 25 | 106 | 6.4 | 6.4 | 0.00 | 0.00 | 0.00 | 83 | 1017.5 |
| 20260905205448 | 26 | 118 | 3.2 | 3.2 | 0.00 | 0.00 | 0.00 | 83 | 1017.3 |
| 20260905204420 | 26 | 121 | 4.8 | 6.4 | 0.00 | 0.00 | 0.00 | 82 | 1017.2 |
| 20260905203427 | 26 | 125 | 1.6 | 3.2 | 0.00 | 0.00 | 0.00 | 82 | 1017.3 |
| 20260905202419 | 26 | 100 | 3.2 | 4.8 | 0.00 | 0.00 | 0.00 | 82 | 1017.2 |
| 20260905201429 | 26 | 81 | 4.8 | 6.4 | 0.00 | 0.00 | 0.00 | 82 | 1017.1 |
| 20260905200420 | 26 | 77 | 4.8 | 4.8 | 0.00 | 0.00 | 0.00 | 82 | 1017.1 |
| 20260905195428 | 26 | 71 | 6.4 | 9.7 | 0.00 | 0.00 | 0.00 | 82 | 1017.2 |
| 20260905194420 | 26 | 84 | 6.4 | 9.7 | 0.00 | 0.00 | 0.00 | 82 | 1017.0 |
| 20260905193429 | 26 | 93 | 6.4 | 9.7 | 0.00 | 0.00 | 0.00 | 82 | 1017.0 |
| 20260905192421 | 26 | 95 | 3.2 | 4.8 | 0.00 | 0.00 | 0.00 | 81 | 1017.0 |
| 20260905191508 | 26 | 91 | 8.0 | 12.9 | 0.00 | 0.00 | 0.00 | 80 | 1016.8 |
| 20260905190420 | 27 | 111 | 6.4 | 9.7 | 0.00 | 0.00 | 0.00 | 79 | 1016.6 |
| 20260905185428 | 27 | 79 | 6.4 | 9.7 | 0.00 | 0.00 | 0.00 | 77 | 1016.4 |
| 20260905184420 | 27 | 48 | 9.7 | 12.9 | 0.00 | 0.00 | 0.00 | 77 | 1016.3 |
| 20260905183428 | 27 | 108 | 6.4 | 9.7 | 0.00 | 0.00 | 0.00 | 77 | 1016.1 |
| 20260905182420 | 28 | 125 | 8.0 | 11.3 | 0.00 | 0.00 | 0.00 | 74 | 1016.0 |
| 20260905181428 | 28 | 114 | 6.4 | 9.7 | 0.00 | 0.00 | 0.00 | 70 | 1015.8 |
| 20260905180421 | 30 | 113 | 8.0 | 11.3 | 0.00 | 0.00 | 0.00 | 61 | 1015.8 |
| 20260905175428 | 31 | 290 | 1.6 | 3.2 | 0.00 | 0.00 | 0.00 | 47 | 1015.5 |
| 20260905174420 | 31 | 0.0 | 0.0 | 0.00 | 0.00 | 0.00 | 48 | 1015.4 | |
| 20260905173429 | 31 | 0.0 | 0.0 | 0.00 | 0.00 | 0.00 | 46 | 1015.3 | |
| 20260905172420 | 32 | 0.0 | 0.0 | 0.00 | 0.00 | 0.00 | 44 | 1015.3 | |
| 20260905171429 | 32 | 275 | 0.0 | 1.6 | 0.00 | 0.00 | 0.00 | 43 | 1015.2 |
| 20260905170420 | 32 | 268 | 1.6 | 1.6 | 0.00 | 0.00 | 0.00 | 42 | 1015.1 |
| 20260905165448 | 33 | 0.0 | 0.0 | 0.00 | 0.00 | 0.00 | 42 | 1015.0 | |
| 20260905164441 | 33 | 0.0 | 0.0 | 0.00 | 0.00 | 0.00 | 41 | 1015.2 | |
| 20260905163448 | 33 | 267 | 0.0 | 1.6 | 0.00 | 0.00 | 0.00 | 41 | 1015.0 |
| 20260905162420 | 35 | 0.0 | 0.0 | 0.00 | 0.00 | 0.00 | 38 | 1014.9 | |
| 20260905161509 | 35 | 0.0 | 0.0 | 0.00 | 0.00 | 0.00 | 37 | 1014.9 | |
| 20260905160421 | 35 | 0.0 | 0.0 | 0.00 | 0.00 | 0.00 | 37 | 1014.9 | |
| 20260905155429 | 35 | 290 | 0.0 | 1.6 | 0.00 | 0.00 | 0.00 | 38 | 1014.8 |
| 20260905154421 | 35 | 0.0 | 0.0 | 0.00 | 0.00 | 0.00 | 37 | 1014.7 | |
| 20260905153449 | 35 | 214 | 3.2 | 4.8 | 0.00 | 0.00 | 0.00 | 38 | 1014.5 |
| 20260905152441 | 35 | 256 | 3.2 | 3.2 | 0.00 | 0.00 | 0.00 | 38 | 1014.6 |
| 20260905151428 | 35 | 240 | 1.6 | 3.2 | 0.00 | 0.00 | 0.00 | 38 | 1014.8 |
| 20260905150420 | 35 | 268 | 0.0 | 1.6 | 0.00 | 0.00 | 0.00 | 38 | 1014.7 |
| 20260905145449 | 35 | 166 | 1.6 | 4.8 | 0.00 | 0.00 | 0.00 | 38 | 1014.6 |
| 20260905144420 | 35 | 219 | 4.8 | 6.4 | 0.00 | 0.00 | 0.00 | 39 | 1014.9 |
| 20260905143428 | 35 | 302 | 3.2 | 3.2 | 0.00 | 0.00 | 0.00 | 38 | 1014.8 |
| 20260905142420 | 33 | 251 | 4.8 | 6.4 | 0.00 | 0.00 | 0.00 | 41 | 1014.7 |
| 20260905141429 | 35 | 224 | 4.8 | 6.4 | 0.00 | 0.00 | 0.00 | 40 | 1015.0 |
| 20260905140421 | 35 | 332 | 3.2 | 4.8 | 0.00 | 0.00 | 0.00 | 40 | 1015.0 |
| 20260905135509 | 35 | 356 | 4.8 | 6.4 | 0.00 | 0.00 | 0.00 | 41 | 1015.1 |
| 20260905134420 | 35 | 321 | 3.2 | 4.8 | 0.00 | 0.00 | 0.00 | 41 | 1015.1 |
| 20260905133429 | 34 | 323 | 6.4 | 9.7 | 0.00 | 0.00 | 0.00 | 42 | 1015.2 |
| 20260905132441 | 35 | 290 | 3.2 | 4.8 | 0.00 | 0.00 | 0.00 | 42 | 1015.5 |
| 20260905131428 | 34 | 199 | 8.0 | 14.5 | 0.00 | 0.00 | 0.00 | 42 | 1015.3 |
| 20260905130420 | 35 | 253 | 4.8 | 12.9 | 0.00 | 0.00 | 0.00 | 42 | 1015.5 |
| 20260905125429 | 34 | 204 | 8.0 | 11.3 | 0.00 | 0.00 | 0.00 | 43 | 1015.7 |
| 20260905124421 | 35 | 315 | 3.2 | 4.8 | 0.00 | 0.00 | 0.00 | 41 | 1015.9 |
| 20260905123445 | 33 | 320 | 1.6 | 3.2 | 0.00 | 0.00 | 0.00 | 42 | 1015.8 |
| 20260905122421 | 35 | 280 | 0.0 | 1.6 | 0.00 | 0.00 | 0.00 | 41 | 1016.0 |
| 20260905121429 | 35 | 241 | 3.2 | 9.7 | 0.00 | 0.00 | 0.00 | 43 | 1015.7 |
| 20260905120421 | 33 | 270 | 1.6 | 3.2 | 0.00 | 0.00 | 0.00 | 44 | 1015.9 |
| 20260905115428 | 34 | 249 | 3.2 | 6.4 | 0.00 | 0.00 | 0.00 | 43 | 1016.1 |
| 20260905114440 | 33 | 328 | 3.2 | 3.2 | 0.00 | 0.00 | 0.00 | 45 | 1016.3 |
| 20260905113428 | 34 | 226 | 3.2 | 9.7 | 0.00 | 0.00 | 0.00 | 43 | 1016.3 |
| 20260905112421 | 33 | 347 | 1.6 | 3.2 | 0.00 | 0.00 | 0.00 | 43 | 1016.3 |
| 20260905111429 | 33 | 284 | 1.6 | 3.2 | 0.00 | 0.00 | 0.00 | 43 | 1016.3 |
| 20260905110421 | 33 | 321 | 6.4 | 9.7 | 0.00 | 0.00 | 0.00 | 43 | 1016.2 |
| 20260905105428 | 33 | 295 | 3.2 | 4.8 | 0.00 | 0.00 | 0.00 | 44 | 1016.3 |
| 20260905104421 | 32 | 296 | 4.8 | 6.4 | 0.00 | 0.00 | 0.00 | 45 | 1016.5 |
| 20260905103429 | 32 | 324 | 3.2 | 3.2 | 0.00 | 0.00 | 0.00 | 43 | 1016.4 |
| 20260905102421 | 33 | 291 | 3.2 | 6.4 | 0.00 | 0.00 | 0.00 | 45 | 1016.4 |
| 20260905101429 | 32 | 293 | 3.2 | 3.2 | 0.00 | 0.00 | 0.00 | 48 | 1016.4 |
| 20260905100421 | 32 | 226 | 4.8 | 9.7 | 0.00 | 0.00 | 0.00 | 48 | 1016.4 |